sensor_id;sensor_type;location;lat;lon;timestamp;P1;durP1;ratioP1;P2;durP2;ratioP2
1563;SDS011;775;51.958;7.976;2023-03-31T00:01:18;14.63;;;2.30;;
1563;SDS011;775;51.958;7.976;2023-03-31T00:03:45;14.43;;;1.90;;
1563;SDS011;775;51.958;7.976;2023-03-31T00:06:13;11.83;;;1.80;;
1563;SDS011;775;51.958;7.976;2023-03-31T00:08:43;15.20;;;1.93;;
1563;SDS011;775;51.958;7.976;2023-03-31T00:11:11;13.13;;;2.13;;
1563;SDS011;775;51.958;7.976;2023-03-31T00:13:40;12.00;;;2.20;;
1563;SDS011;775;51.958;7.976;2023-03-31T00:16:07;12.67;;;2.67;;
1563;SDS011;775;51.958;7.976;2023-03-31T00:18:35;12.13;;;2.10;;
1563;SDS011;775;51.958;7.976;2023-03-31T00:21:05;13.73;;;2.43;;
1563;SDS011;775;51.958;7.976;2023-03-31T00:23:33;11.80;;;1.97;;
1563;SDS011;775;51.958;7.976;2023-03-31T00:26:00;14.77;;;2.37;;
1563;SDS011;775;51.958;7.976;2023-03-31T00:28:27;13.47;;;2.30;;
1563;SDS011;775;51.958;7.976;2023-03-31T00:30:59;13.33;;;2.17;;
1563;SDS011;775;51.958;7.976;2023-03-31T00:33:27;14.23;;;2.40;;
1563;SDS011;775;51.958;7.976;2023-03-31T00:35:54;13.33;;;2.43;;
1563;SDS011;775;51.958;7.976;2023-03-31T00:38:25;12.93;;;2.23;;
1563;SDS011;775;51.958;7.976;2023-03-31T00:40:53;14.30;;;2.20;;
1563;SDS011;775;51.958;7.976;2023-03-31T00:43:23;13.37;;;2.03;;
1563;SDS011;775;51.958;7.976;2023-03-31T00:45:51;15.33;;;2.20;;
1563;SDS011;775;51.958;7.976;2023-03-31T00:48:20;13.03;;;1.93;;
1563;SDS011;775;51.958;7.976;2023-03-31T00:50:50;14.30;;;2.70;;
1563;SDS011;775;51.958;7.976;2023-03-31T00:53:20;16.20;;;2.83;;
1563;SDS011;775;51.958;7.976;2023-03-31T00:55:48;12.27;;;1.70;;
1563;SDS011;775;51.958;7.976;2023-03-31T00:58:17;18.73;;;2.73;;
1563;SDS011;775;51.958;7.976;2023-03-31T01:00:45;14.50;;;2.43;;
1563;SDS011;775;51.958;7.976;2023-03-31T01:03:13;12.20;;;2.30;;
1563;SDS011;775;51.958;7.976;2023-03-31T01:05:43;14.50;;;2.77;;
1563;SDS011;775;51.958;7.976;2023-03-31T01:08:11;14.93;;;2.03;;
1563;SDS011;775;51.958;7.976;2023-03-31T01:10:40;13.37;;;2.20;;
1563;SDS011;775;51.958;7.976;2023-03-31T01:13:08;16.03;;;2.20;;
1563;SDS011;775;51.958;7.976;2023-03-31T01:15:36;11.50;;;1.80;;
1563;SDS011;775;51.958;7.976;2023-03-31T01:18:03;16.30;;;2.30;;
1563;SDS011;775;51.958;7.976;2023-03-31T01:20:32;12.97;;;2.07;;
1563;SDS011;775;51.958;7.976;2023-03-31T01:23:09;14.50;;;2.20;;
1563;SDS011;775;51.958;7.976;2023-03-31T01:25:51;11.87;;;1.90;;
1563;SDS011;775;51.958;7.976;2023-03-31T01:28:27;15.50;;;2.10;;
1563;SDS011;775;51.958;7.976;2023-03-31T01:34:11;13.10;;;1.70;;
1563;SDS011;775;51.958;7.976;2023-03-31T01:39:48;13.70;;;2.60;;
1563;SDS011;775;51.958;7.976;2023-03-31T01:42:19;11.67;;;1.80;;
1563;SDS011;775;51.958;7.976;2023-03-31T01:44:49;16.87;;;2.00;;
1563;SDS011;775;51.958;7.976;2023-03-31T01:47:23;13.10;;;2.07;;
1563;SDS011;775;51.958;7.976;2023-03-31T01:49:54;13.13;;;1.97;;
1563;SDS011;775;51.958;7.976;2023-03-31T01:52:24;11.73;;;2.03;;
1563;SDS011;775;51.958;7.976;2023-03-31T01:54:54;12.70;;;2.27;;
1563;SDS011;775;51.958;7.976;2023-03-31T01:57:25;13.90;;;2.50;;
1563;SDS011;775;51.958;7.976;2023-03-31T01:59:55;15.77;;;2.57;;
1563;SDS011;775;51.958;7.976;2023-03-31T02:02:25;19.57;;;2.70;;
1563;SDS011;775;51.958;7.976;2023-03-31T02:04:54;12.97;;;2.20;;
1563;SDS011;775;51.958;7.976;2023-03-31T02:07:23;16.30;;;2.17;;
1563;SDS011;775;51.958;7.976;2023-03-31T02:09:55;15.17;;;2.20;;
1563;SDS011;775;51.958;7.976;2023-03-31T02:12:23;12.00;;;1.80;;
1563;SDS011;775;51.958;7.976;2023-03-31T02:14:51;15.00;;;1.90;;
1563;SDS011;775;51.958;7.976;2023-03-31T02:17:20;12.17;;;2.00;;
1563;SDS011;775;51.958;7.976;2023-03-31T02:19:55;17.63;;;2.27;;
1563;SDS011;775;51.958;7.976;2023-03-31T02:22:23;12.73;;;2.07;;
1563;SDS011;775;51.958;7.976;2023-03-31T02:24:51;13.80;;;2.00;;
1563;SDS011;775;51.958;7.976;2023-03-31T02:27:21;15.77;;;2.37;;
1563;SDS011;775;51.958;7.976;2023-03-31T02:29:49;13.90;;;1.93;;
1563;SDS011;775;51.958;7.976;2023-03-31T02:32:19;13.87;;;1.93;;
1563;SDS011;775;51.958;7.976;2023-03-31T02:34:47;11.50;;;1.93;;
1563;SDS011;775;51.958;7.976;2023-03-31T02:37:15;12.40;;;1.90;;
1563;SDS011;775;51.958;7.976;2023-03-31T02:39:43;14.70;;;2.40;;
1563;SDS011;775;51.958;7.976;2023-03-31T02:42:11;16.50;;;2.23;;
1563;SDS011;775;51.958;7.976;2023-03-31T02:44:39;12.60;;;2.33;;
1563;SDS011;775;51.958;7.976;2023-03-31T02:47:07;14.23;;;2.30;;
1563;SDS011;775;51.958;7.976;2023-03-31T02:49:36;15.07;;;2.23;;
1563;SDS011;775;51.958;7.976;2023-03-31T02:52:14;13.10;;;1.90;;
1563;SDS011;775;51.958;7.976;2023-03-31T02:57:35;11.47;;;2.40;;
1563;SDS011;775;51.958;7.976;2023-03-31T03:00:07;14.57;;;2.50;;
1563;SDS011;775;51.958;7.976;2023-03-31T03:02:37;15.77;;;2.00;;
1563;SDS011;775;51.958;7.976;2023-03-31T03:05:11;13.43;;;2.03;;
1563;SDS011;775;51.958;7.976;2023-03-31T03:07:44;12.00;;;1.90;;
1563;SDS011;775;51.958;7.976;2023-03-31T03:10:14;17.00;;;2.03;;
1563;SDS011;775;51.958;7.976;2023-03-31T03:12:44;12.27;;;2.30;;
1563;SDS011;775;51.958;7.976;2023-03-31T03:15:17;13.17;;;1.60;;
1563;SDS011;775;51.958;7.976;2023-03-31T03:17:47;13.50;;;2.10;;
1563;SDS011;775;51.958;7.976;2023-03-31T03:20:16;14.17;;;2.03;;
1563;SDS011;775;51.958;7.976;2023-03-31T03:22:44;13.60;;;1.90;;
1563;SDS011;775;51.958;7.976;2023-03-31T03:25:12;15.00;;;2.00;;
1563;SDS011;775;51.958;7.976;2023-03-31T03:27:41;13.30;;;2.10;;
1563;SDS011;775;51.958;7.976;2023-03-31T03:30:08;10.90;;;2.10;;
1563;SDS011;775;51.958;7.976;2023-03-31T03:32:37;13.87;;;2.20;;
1563;SDS011;775;51.958;7.976;2023-03-31T03:35:05;17.00;;;2.60;;
1563;SDS011;775;51.958;7.976;2023-03-31T03:37:32;13.70;;;2.67;;
1563;SDS011;775;51.958;7.976;2023-03-31T03:40:00;15.90;;;2.47;;
1563;SDS011;775;51.958;7.976;2023-03-31T03:42:27;13.07;;;2.50;;
1563;SDS011;775;51.958;7.976;2023-03-31T03:44:54;15.53;;;2.33;;
1563;SDS011;775;51.958;7.976;2023-03-31T03:47:21;14.53;;;2.30;;
1563;SDS011;775;51.958;7.976;2023-03-31T03:49:50;13.63;;;2.20;;
1563;SDS011;775;51.958;7.976;2023-03-31T03:52:17;12.23;;;2.23;;
1563;SDS011;775;51.958;7.976;2023-03-31T03:54:45;13.10;;;2.37;;
1563;SDS011;775;51.958;7.976;2023-03-31T03:57:12;13.60;;;2.27;;
1563;SDS011;775;51.958;7.976;2023-03-31T03:59:39;12.33;;;2.40;;
1563;SDS011;775;51.958;7.976;2023-03-31T04:02:06;15.67;;;3.20;;
1563;SDS011;775;51.958;7.976;2023-03-31T04:04:33;14.80;;;3.43;;
1563;SDS011;775;51.958;7.976;2023-03-31T04:07:02;16.97;;;4.60;;
1563;SDS011;775;51.958;7.976;2023-03-31T04:09:29;15.03;;;3.40;;
1563;SDS011;775;51.958;7.976;2023-03-31T04:11:56;18.20;;;3.73;;
1563;SDS011;775;51.958;7.976;2023-03-31T04:14:23;11.57;;;2.40;;
1563;SDS011;775;51.958;7.976;2023-03-31T04:16:51;12.57;;;2.30;;
1563;SDS011;775;51.958;7.976;2023-03-31T04:19:20;15.70;;;2.57;;
1563;SDS011;775;51.958;7.976;2023-03-31T04:21:50;13.27;;;2.43;;
1563;SDS011;775;51.958;7.976;2023-03-31T04:24:24;12.90;;;2.07;;
1563;SDS011;775;51.958;7.976;2023-03-31T04:26:57;13.50;;;2.30;;
1563;SDS011;775;51.958;7.976;2023-03-31T04:29:24;13.17;;;2.93;;
1563;SDS011;775;51.958;7.976;2023-03-31T04:31:51;17.20;;;2.90;;
1563;SDS011;775;51.958;7.976;2023-03-31T04:34:22;13.17;;;3.43;;
1563;SDS011;775;51.958;7.976;2023-03-31T04:36:50;14.90;;;3.47;;
1563;SDS011;775;51.958;7.976;2023-03-31T04:39:20;19.57;;;3.07;;
1563;SDS011;775;51.958;7.976;2023-03-31T04:41:52;14.70;;;2.83;;
1563;SDS011;775;51.958;7.976;2023-03-31T04:44:19;16.10;;;3.10;;
1563;SDS011;775;51.958;7.976;2023-03-31T04:46:46;15.90;;;2.80;;
1563;SDS011;775;51.958;7.976;2023-03-31T04:49:13;20.67;;;3.20;;
1563;SDS011;775;51.958;7.976;2023-03-31T04:51:40;14.60;;;3.10;;
1563;SDS011;775;51.958;7.976;2023-03-31T04:54:09;15.83;;;3.83;;
1563;SDS011;775;51.958;7.976;2023-03-31T04:56:36;25.17;;;5.00;;
1563;SDS011;775;51.958;7.976;2023-03-31T04:59:04;24.20;;;4.90;;
1563;SDS011;775;51.958;7.976;2023-03-31T05:01:32;15.33;;;3.60;;
1563;SDS011;775;51.958;7.976;2023-03-31T05:04:00;15.23;;;3.33;;
1563;SDS011;775;51.958;7.976;2023-03-31T05:06:27;17.50;;;3.70;;
1563;SDS011;775;51.958;7.976;2023-03-31T05:08:55;12.97;;;3.10;;
1563;SDS011;775;51.958;7.976;2023-03-31T05:11:22;15.67;;;3.13;;
1563;SDS011;775;51.958;7.976;2023-03-31T05:13:49;17.90;;;3.10;;
1563;SDS011;775;51.958;7.976;2023-03-31T05:16:18;15.97;;;4.03;;
1563;SDS011;775;51.958;7.976;2023-03-31T05:18:45;18.73;;;3.57;;
1563;SDS011;775;51.958;7.976;2023-03-31T05:21:13;14.90;;;2.83;;
1563;SDS011;775;51.958;7.976;2023-03-31T05:23:40;18.17;;;3.40;;
1563;SDS011;775;51.958;7.976;2023-03-31T05:26:08;16.63;;;3.13;;
1563;SDS011;775;51.958;7.976;2023-03-31T05:28:36;21.73;;;3.77;;
1563;SDS011;775;51.958;7.976;2023-03-31T05:31:04;19.60;;;3.93;;
1563;SDS011;775;51.958;7.976;2023-03-31T05:33:32;15.93;;;3.23;;
1563;SDS011;775;51.958;7.976;2023-03-31T05:36:04;19.20;;;2.80;;
1563;SDS011;775;51.958;7.976;2023-03-31T05:38:31;16.27;;;3.00;;
1563;SDS011;775;51.958;7.976;2023-03-31T05:40:58;15.07;;;3.37;;
1563;SDS011;775;51.958;7.976;2023-03-31T05:43:25;23.10;;;3.30;;
1563;SDS011;775;51.958;7.976;2023-03-31T05:45:52;15.07;;;3.30;;
1563;SDS011;775;51.958;7.976;2023-03-31T05:48:19;19.23;;;3.30;;
1563;SDS011;775;51.958;7.976;2023-03-31T05:50:48;15.13;;;3.43;;
1563;SDS011;775;51.958;7.976;2023-03-31T05:53:15;15.50;;;2.90;;
1563;SDS011;775;51.958;7.976;2023-03-31T05:55:42;16.67;;;2.47;;
1563;SDS011;775;51.958;7.976;2023-03-31T05:58:09;13.13;;;2.57;;
1563;SDS011;775;51.958;7.976;2023-03-31T06:00:36;13.83;;;2.30;;
1563;SDS011;775;51.958;7.976;2023-03-31T06:03:03;14.30;;;2.20;;
1563;SDS011;775;51.958;7.976;2023-03-31T06:05:31;11.73;;;2.10;;
1563;SDS011;775;51.958;7.976;2023-03-31T06:08:00;18.03;;;2.60;;
1563;SDS011;775;51.958;7.976;2023-03-31T06:10:27;15.30;;;2.40;;
1563;SDS011;775;51.958;7.976;2023-03-31T06:12:54;15.73;;;2.63;;
1563;SDS011;775;51.958;7.976;2023-03-31T06:15:22;12.37;;;2.17;;
1563;SDS011;775;51.958;7.976;2023-03-31T06:17:49;17.87;;;3.43;;
1563;SDS011;775;51.958;7.976;2023-03-31T06:20:16;15.53;;;3.60;;
1563;SDS011;775;51.958;7.976;2023-03-31T06:22:43;20.63;;;3.63;;
1563;SDS011;775;51.958;7.976;2023-03-31T06:25:11;17.60;;;3.67;;
1563;SDS011;775;51.958;7.976;2023-03-31T06:27:38;15.10;;;2.73;;
1563;SDS011;775;51.958;7.976;2023-03-31T06:30:06;15.77;;;2.90;;
1563;SDS011;775;51.958;7.976;2023-03-31T06:32:33;15.40;;;2.80;;
1563;SDS011;775;51.958;7.976;2023-03-31T06:35:00;15.33;;;3.00;;
1563;SDS011;775;51.958;7.976;2023-03-31T06:37:27;16.10;;;3.00;;
1563;SDS011;775;51.958;7.976;2023-03-31T06:39:55;13.83;;;2.33;;
1563;SDS011;775;51.958;7.976;2023-03-31T06:42:23;18.10;;;3.00;;
1563;SDS011;775;51.958;7.976;2023-03-31T06:44:50;13.40;;;3.07;;
1563;SDS011;775;51.958;7.976;2023-03-31T06:47:19;18.40;;;3.40;;
1563;SDS011;775;51.958;7.976;2023-03-31T06:49:46;14.00;;;2.57;;
1563;SDS011;775;51.958;7.976;2023-03-31T06:52:13;19.60;;;3.37;;
1563;SDS011;775;51.958;7.976;2023-03-31T06:54:40;16.77;;;2.90;;
1563;SDS011;775;51.958;7.976;2023-03-31T06:57:07;21.53;;;3.97;;
1563;SDS011;775;51.958;7.976;2023-03-31T06:59:36;18.47;;;3.50;;
1563;SDS011;775;51.958;7.976;2023-03-31T07:02:03;13.07;;;2.13;;
1563;SDS011;775;51.958;7.976;2023-03-31T07:04:30;14.53;;;2.90;;
1563;SDS011;775;51.958;7.976;2023-03-31T07:06:57;21.70;;;3.10;;
1563;SDS011;775;51.958;7.976;2023-03-31T07:09:24;14.00;;;2.97;;
1563;SDS011;775;51.958;7.976;2023-03-31T07:11:51;15.60;;;3.20;;
1563;SDS011;775;51.958;7.976;2023-03-31T07:14:18;14.00;;;2.50;;
1563;SDS011;775;51.958;7.976;2023-03-31T07:16:48;11.67;;;1.70;;
1563;SDS011;775;51.958;7.976;2023-03-31T07:19:15;12.50;;;1.77;;
1563;SDS011;775;51.958;7.976;2023-03-31T07:21:43;12.43;;;2.00;;
1563;SDS011;775;51.958;7.976;2023-03-31T07:24:10;15.03;;;2.33;;
1563;SDS011;775;51.958;7.976;2023-03-31T07:26:37;13.87;;;2.43;;
1563;SDS011;775;51.958;7.976;2023-03-31T07:29:04;12.10;;;1.93;;
1563;SDS011;775;51.958;7.976;2023-03-31T07:31:31;14.20;;;2.50;;
1563;SDS011;775;51.958;7.976;2023-03-31T07:34:01;19.10;;;2.30;;
1563;SDS011;775;51.958;7.976;2023-03-31T07:36:28;17.27;;;2.60;;
1563;SDS011;775;51.958;7.976;2023-03-31T07:38:55;15.70;;;3.27;;
1563;SDS011;775;51.958;7.976;2023-03-31T07:41:23;14.20;;;3.30;;
1563;SDS011;775;51.958;7.976;2023-03-31T07:43:50;16.53;;;3.13;;
1563;SDS011;775;51.958;7.976;2023-03-31T07:46:18;14.23;;;2.80;;
1563;SDS011;775;51.958;7.976;2023-03-31T07:48:45;23.70;;;4.63;;
1563;SDS011;775;51.958;7.976;2023-03-31T07:51:15;23.90;;;3.40;;
1563;SDS011;775;51.958;7.976;2023-03-31T07:53:42;16.00;;;2.03;;
1563;SDS011;775;51.958;7.976;2023-03-31T07:56:09;18.13;;;2.30;;
1563;SDS011;775;51.958;7.976;2023-03-31T07:58:36;12.40;;;1.70;;
1563;SDS011;775;51.958;7.976;2023-03-31T08:01:03;15.30;;;2.30;;
1563;SDS011;775;51.958;7.976;2023-03-31T08:03:31;12.97;;;2.43;;
1563;SDS011;775;51.958;7.976;2023-03-31T08:05:58;11.23;;;1.57;;
1563;SDS011;775;51.958;7.976;2023-03-31T08:08:27;12.57;;;2.07;;
1563;SDS011;775;51.958;7.976;2023-03-31T08:10:54;11.30;;;1.60;;
1563;SDS011;775;51.958;7.976;2023-03-31T08:13:21;15.00;;;2.73;;
1563;SDS011;775;51.958;7.976;2023-03-31T08:15:48;11.07;;;1.60;;
1563;SDS011;775;51.958;7.976;2023-03-31T08:18:16;10.70;;;1.50;;
1563;SDS011;775;51.958;7.976;2023-03-31T08:20:43;14.57;;;2.20;;
1563;SDS011;775;51.958;7.976;2023-03-31T08:23:13;11.77;;;2.10;;
1563;SDS011;775;51.958;7.976;2023-03-31T08:25:42;10.70;;;1.50;;
1563;SDS011;775;51.958;7.976;2023-03-31T08:28:09;10.80;;;1.33;;
1563;SDS011;775;51.958;7.976;2023-03-31T08:30:38;13.50;;;2.27;;
1563;SDS011;775;51.958;7.976;2023-03-31T08:33:05;13.00;;;2.00;;
1563;SDS011;775;51.958;7.976;2023-03-31T08:35:33;10.70;;;1.87;;
1563;SDS011;775;51.958;7.976;2023-03-31T08:38:00;10.80;;;1.53;;
1563;SDS011;775;51.958;7.976;2023-03-31T08:40:27;10.80;;;1.63;;
1563;SDS011;775;51.958;7.976;2023-03-31T08:42:57;12.40;;;1.33;;
1563;SDS011;775;51.958;7.976;2023-03-31T08:45:26;11.40;;;1.50;;
1563;SDS011;775;51.958;7.976;2023-03-31T08:47:56;12.70;;;1.70;;
1563;SDS011;775;51.958;7.976;2023-03-31T08:50:26;11.87;;;1.50;;
1563;SDS011;775;51.958;7.976;2023-03-31T08:52:55;12.13;;;2.07;;
1563;SDS011;775;51.958;7.976;2023-03-31T08:55:26;10.73;;;1.50;;
1563;SDS011;775;51.958;7.976;2023-03-31T08:57:58;11.60;;;1.70;;
1563;SDS011;775;51.958;7.976;2023-03-31T09:00:28;15.67;;;1.60;;
1563;SDS011;775;51.958;7.976;2023-03-31T09:02:57;11.67;;;1.67;;
1563;SDS011;775;51.958;7.976;2023-03-31T09:08:24;13.53;;;1.80;;
1563;SDS011;775;51.958;7.976;2023-03-31T09:10:58;13.63;;;1.80;;
1563;SDS011;775;51.958;7.976;2023-03-31T09:13:52;11.03;;;1.53;;
1563;SDS011;775;51.958;7.976;2023-03-31T09:16:23;11.57;;;1.77;;
1563;SDS011;775;51.958;7.976;2023-03-31T09:18:51;11.53;;;1.63;;
1563;SDS011;775;51.958;7.976;2023-03-31T09:21:20;11.07;;;1.87;;
1563;SDS011;775;51.958;7.976;2023-03-31T09:23:49;10.60;;;1.50;;
1563;SDS011;775;51.958;7.976;2023-03-31T09:26:20;14.70;;;1.80;;
1563;SDS011;775;51.958;7.976;2023-03-31T09:28:51;11.70;;;1.57;;
1563;SDS011;775;51.958;7.976;2023-03-31T09:31:20;11.50;;;2.00;;
1563;SDS011;775;51.958;7.976;2023-03-31T09:33:47;11.87;;;1.67;;
1563;SDS011;775;51.958;7.976;2023-03-31T09:36:17;12.43;;;1.70;;
1563;SDS011;775;51.958;7.976;2023-03-31T09:38:46;11.97;;;2.10;;
1563;SDS011;775;51.958;7.976;2023-03-31T09:41:14;10.97;;;1.70;;
1563;SDS011;775;51.958;7.976;2023-03-31T09:43:43;11.20;;;1.50;;
1563;SDS011;775;51.958;7.976;2023-03-31T09:46:14;12.20;;;1.93;;
1563;SDS011;775;51.958;7.976;2023-03-31T09:48:43;11.67;;;1.60;;
1563;SDS011;775;51.958;7.976;2023-03-31T09:51:15;11.77;;;1.70;;
1563;SDS011;775;51.958;7.976;2023-03-31T09:53:44;13.63;;;2.00;;
1563;SDS011;775;51.958;7.976;2023-03-31T09:56:12;14.27;;;1.70;;
1563;SDS011;775;51.958;7.976;2023-03-31T09:58:59;12.90;;;1.70;;
1563;SDS011;775;51.958;7.976;2023-03-31T10:01:28;12.23;;;1.90;;
1563;SDS011;775;51.958;7.976;2023-03-31T10:03:56;10.57;;;1.70;;
1563;SDS011;775;51.958;7.976;2023-03-31T10:06:23;11.50;;;1.60;;
1563;SDS011;775;51.958;7.976;2023-03-31T10:08:52;12.83;;;1.83;;
1563;SDS011;775;51.958;7.976;2023-03-31T10:11:21;11.57;;;1.93;;
1563;SDS011;775;51.958;7.976;2023-03-31T10:13:49;11.57;;;2.10;;
1563;SDS011;775;51.958;7.976;2023-03-31T10:16:25;11.20;;;1.60;;
1563;SDS011;775;51.958;7.976;2023-03-31T10:18:54;12.60;;;2.00;;
1563;SDS011;775;51.958;7.976;2023-03-31T10:21:36;15.37;;;2.20;;
1563;SDS011;775;51.958;7.976;2023-03-31T10:24:06;14.30;;;1.90;;
1563;SDS011;775;51.958;7.976;2023-03-31T10:26:34;11.20;;;1.90;;
1563;SDS011;775;51.958;7.976;2023-03-31T10:29:01;12.40;;;2.13;;
1563;SDS011;775;51.958;7.976;2023-03-31T10:31:33;13.90;;;2.10;;
1563;SDS011;775;51.958;7.976;2023-03-31T10:34:04;15.10;;;1.50;;
1563;SDS011;775;51.958;7.976;2023-03-31T10:36:32;12.37;;;1.93;;
1563;SDS011;775;51.958;7.976;2023-03-31T10:39:01;11.40;;;1.83;;
1563;SDS011;775;51.958;7.976;2023-03-31T10:41:31;12.97;;;2.10;;
1563;SDS011;775;51.958;7.976;2023-03-31T10:43:58;15.00;;;2.43;;
1563;SDS011;775;51.958;7.976;2023-03-31T10:46:38;11.63;;;2.17;;
1563;SDS011;775;51.958;7.976;2023-03-31T10:49:14;11.57;;;2.13;;
1563;SDS011;775;51.958;7.976;2023-03-31T10:51:47;11.63;;;2.30;;
1563;SDS011;775;51.958;7.976;2023-03-31T10:54:14;13.63;;;2.30;;
1563;SDS011;775;51.958;7.976;2023-03-31T10:56:43;11.63;;;1.80;;
1563;SDS011;775;51.958;7.976;2023-03-31T10:59:13;15.07;;;2.60;;
1563;SDS011;775;51.958;7.976;2023-03-31T11:01:49;13.27;;;2.07;;
1563;SDS011;775;51.958;7.976;2023-03-31T11:07:03;12.40;;;2.10;;
1563;SDS011;775;51.958;7.976;2023-03-31T11:09:40;11.43;;;1.90;;
1563;SDS011;775;51.958;7.976;2023-03-31T11:12:13;13.20;;;1.90;;
1563;SDS011;775;51.958;7.976;2023-03-31T11:14:44;11.83;;;2.30;;
1563;SDS011;775;51.958;7.976;2023-03-31T11:17:18;13.23;;;3.27;;
1563;SDS011;775;51.958;7.976;2023-03-31T11:19:48;12.70;;;2.10;;
1563;SDS011;775;51.958;7.976;2023-03-31T11:22:22;11.07;;;1.83;;
1563;SDS011;775;51.958;7.976;2023-03-31T11:25:00;11.77;;;2.03;;
1563;SDS011;775;51.958;7.976;2023-03-31T11:27:34;11.33;;;2.07;;
1563;SDS011;775;51.958;7.976;2023-03-31T11:30:03;13.03;;;2.17;;
1563;SDS011;775;51.958;7.976;2023-03-31T11:32:36;13.37;;;2.43;;
1563;SDS011;775;51.958;7.976;2023-03-31T11:35:11;14.10;;;2.10;;
1563;SDS011;775;51.958;7.976;2023-03-31T11:37:44;12.33;;;2.10;;
1563;SDS011;775;51.958;7.976;2023-03-31T11:40:27;14.10;;;2.53;;
1563;SDS011;775;51.958;7.976;2023-03-31T11:42:56;15.47;;;2.80;;
1563;SDS011;775;51.958;7.976;2023-03-31T11:45:26;14.40;;;2.40;;
1563;SDS011;775;51.958;7.976;2023-03-31T11:47:56;13.73;;;2.77;;
1563;SDS011;775;51.958;7.976;2023-03-31T11:50:27;11.97;;;1.97;;
1563;SDS011;775;51.958;7.976;2023-03-31T11:52:58;12.73;;;2.23;;
1563;SDS011;775;51.958;7.976;2023-03-31T11:55:27;14.50;;;2.60;;
1563;SDS011;775;51.958;7.976;2023-03-31T11:57:57;13.50;;;2.10;;
1563;SDS011;775;51.958;7.976;2023-03-31T12:00:25;17.50;;;2.60;;
1563;SDS011;775;51.958;7.976;2023-03-31T12:02:53;13.57;;;2.37;;
1563;SDS011;775;51.958;7.976;2023-03-31T12:05:22;13.90;;;2.80;;
1563;SDS011;775;51.958;7.976;2023-03-31T12:07:51;17.10;;;2.30;;
1563;SDS011;775;51.958;7.976;2023-03-31T12:10:22;14.40;;;2.37;;
1563;SDS011;775;51.958;7.976;2023-03-31T12:12:52;12.30;;;2.27;;
1563;SDS011;775;51.958;7.976;2023-03-31T12:15:21;13.90;;;2.00;;
1563;SDS011;775;51.958;7.976;2023-03-31T12:17:51;13.43;;;2.43;;
1563;SDS011;775;51.958;7.976;2023-03-31T12:20:24;13.80;;;2.47;;
1563;SDS011;775;51.958;7.976;2023-03-31T12:22:52;14.30;;;1.70;;
1563;SDS011;775;51.958;7.976;2023-03-31T12:25:22;13.90;;;2.37;;
1563;SDS011;775;51.958;7.976;2023-03-31T12:27:50;13.33;;;2.60;;
1563;SDS011;775;51.958;7.976;2023-03-31T12:30:19;11.03;;;2.03;;
1563;SDS011;775;51.958;7.976;2023-03-31T12:32:48;12.87;;;2.20;;
1563;SDS011;775;51.958;7.976;2023-03-31T12:35:19;14.27;;;3.10;;
1563;SDS011;775;51.958;7.976;2023-03-31T12:40:36;12.53;;;2.43;;
1563;SDS011;775;51.958;7.976;2023-03-31T12:43:11;12.87;;;2.90;;
1563;SDS011;775;51.958;7.976;2023-03-31T12:45:42;14.07;;;2.97;;
1563;SDS011;775;51.958;7.976;2023-03-31T12:51:13;13.77;;;2.70;;
1563;SDS011;775;51.958;7.976;2023-03-31T12:53:46;16.10;;;2.80;;
1563;SDS011;775;51.958;7.976;2023-03-31T12:56:18;14.40;;;2.83;;
1563;SDS011;775;51.958;7.976;2023-03-31T12:58:45;13.00;;;2.00;;
1563;SDS011;775;51.958;7.976;2023-03-31T13:01:14;15.43;;;2.60;;
1563;SDS011;775;51.958;7.976;2023-03-31T13:03:42;12.50;;;2.20;;
1563;SDS011;775;51.958;7.976;2023-03-31T13:06:10;12.60;;;2.27;;
1563;SDS011;775;51.958;7.976;2023-03-31T13:08:47;12.03;;;1.97;;
1563;SDS011;775;51.958;7.976;2023-03-31T13:11:15;12.03;;;1.83;;
1563;SDS011;775;51.958;7.976;2023-03-31T13:13:45;13.03;;;2.53;;
1563;SDS011;775;51.958;7.976;2023-03-31T13:16:17;15.20;;;2.30;;
1563;SDS011;775;51.958;7.976;2023-03-31T13:18:48;12.70;;;2.10;;
1563;SDS011;775;51.958;7.976;2023-03-31T13:21:16;13.83;;;2.50;;
1563;SDS011;775;51.958;7.976;2023-03-31T13:23:44;14.17;;;2.77;;
1563;SDS011;775;51.958;7.976;2023-03-31T13:34:19;13.40;;;2.17;;
1563;SDS011;775;51.958;7.976;2023-03-31T13:36:58;13.53;;;2.37;;
1563;SDS011;775;51.958;7.976;2023-03-31T13:39:34;14.10;;;2.17;;
1563;SDS011;775;51.958;7.976;2023-03-31T13:42:13;13.13;;;1.80;;
1563;SDS011;775;51.958;7.976;2023-03-31T13:44:49;13.43;;;1.77;;
1563;SDS011;775;51.958;7.976;2023-03-31T13:47:31;12.47;;;2.20;;
1563;SDS011;775;51.958;7.976;2023-03-31T13:52:54;14.27;;;2.23;;
1563;SDS011;775;51.958;7.976;2023-03-31T13:55:46;12.93;;;1.97;;
1563;SDS011;775;51.958;7.976;2023-03-31T13:58:21;12.80;;;2.10;;
1563;SDS011;775;51.958;7.976;2023-03-31T14:00:55;14.07;;;2.50;;
1563;SDS011;775;51.958;7.976;2023-03-31T14:03:26;16.50;;;2.57;;
1563;SDS011;775;51.958;7.976;2023-03-31T14:05:56;15.33;;;2.33;;
1563;SDS011;775;51.958;7.976;2023-03-31T14:08:28;13.47;;;2.47;;
1563;SDS011;775;51.958;7.976;2023-03-31T14:13:40;13.90;;;2.23;;
1563;SDS011;775;51.958;7.976;2023-03-31T14:16:07;15.23;;;2.50;;
1563;SDS011;775;51.958;7.976;2023-03-31T14:18:35;13.90;;;2.17;;
1563;SDS011;775;51.958;7.976;2023-03-31T14:21:06;14.70;;;2.20;;
1563;SDS011;775;51.958;7.976;2023-03-31T14:23:43;14.23;;;2.17;;
1563;SDS011;775;51.958;7.976;2023-03-31T14:26:14;15.77;;;2.40;;
1563;SDS011;775;51.958;7.976;2023-03-31T14:31:27;16.00;;;2.33;;
1563;SDS011;775;51.958;7.976;2023-03-31T14:36:42;16.17;;;2.10;;
1563;SDS011;775;51.958;7.976;2023-03-31T14:39:15;16.00;;;2.20;;
1563;SDS011;775;51.958;7.976;2023-03-31T14:41:48;17.27;;;3.03;;
1563;SDS011;775;51.958;7.976;2023-03-31T14:44:16;13.90;;;2.07;;
1563;SDS011;775;51.958;7.976;2023-03-31T14:46:44;13.07;;;2.00;;
1563;SDS011;775;51.958;7.976;2023-03-31T14:49:14;14.40;;;2.40;;
1563;SDS011;775;51.958;7.976;2023-03-31T14:51:44;12.20;;;2.30;;
1563;SDS011;775;51.958;7.976;2023-03-31T14:54:15;12.23;;;2.10;;
1563;SDS011;775;51.958;7.976;2023-03-31T14:56:43;15.27;;;2.40;;
1563;SDS011;775;51.958;7.976;2023-03-31T14:59:12;13.20;;;2.10;;
1563;SDS011;775;51.958;7.976;2023-03-31T15:01:40;16.07;;;3.23;;
1563;SDS011;775;51.958;7.976;2023-03-31T15:04:08;15.80;;;2.40;;
1563;SDS011;775;51.958;7.976;2023-03-31T15:06:36;12.10;;;2.20;;
1563;SDS011;775;51.958;7.976;2023-03-31T15:09:05;13.33;;;2.03;;
1563;SDS011;775;51.958;7.976;2023-03-31T15:11:34;13.77;;;1.63;;
1563;SDS011;775;51.958;7.976;2023-03-31T15:14:01;15.40;;;2.27;;
1563;SDS011;775;51.958;7.976;2023-03-31T15:16:33;15.20;;;1.97;;
1563;SDS011;775;51.958;7.976;2023-03-31T15:19:04;13.90;;;2.20;;
1563;SDS011;775;51.958;7.976;2023-03-31T15:21:35;16.23;;;2.13;;
1563;SDS011;775;51.958;7.976;2023-03-31T15:24:03;13.10;;;2.20;;
1563;SDS011;775;51.958;7.976;2023-03-31T15:26:30;13.73;;;2.07;;
1563;SDS011;775;51.958;7.976;2023-03-31T15:29:00;15.50;;;2.20;;
1563;SDS011;775;51.958;7.976;2023-03-31T15:31:29;17.30;;;2.50;;
1563;SDS011;775;51.958;7.976;2023-03-31T15:33:57;16.77;;;3.57;;
1563;SDS011;775;51.958;7.976;2023-03-31T15:36:24;14.60;;;1.70;;
1563;SDS011;775;51.958;7.976;2023-03-31T15:38:53;13.30;;;1.93;;
1563;SDS011;775;51.958;7.976;2023-03-31T15:41:22;14.93;;;2.20;;
1563;SDS011;775;51.958;7.976;2023-03-31T15:44:02;13.93;;;2.47;;
1563;SDS011;775;51.958;7.976;2023-03-31T15:49:18;12.00;;;1.70;;
1563;SDS011;775;51.958;7.976;2023-03-31T15:51:46;13.57;;;2.07;;
1563;SDS011;775;51.958;7.976;2023-03-31T15:54:25;11.70;;;1.63;;
1563;SDS011;775;51.958;7.976;2023-03-31T15:56:55;13.53;;;2.07;;
1563;SDS011;775;51.958;7.976;2023-03-31T15:59:25;13.03;;;2.10;;
1563;SDS011;775;51.958;7.976;2023-03-31T16:01:52;18.17;;;2.70;;
1563;SDS011;775;51.958;7.976;2023-03-31T16:04:22;14.00;;;2.30;;
1563;SDS011;775;51.958;7.976;2023-03-31T16:06:50;13.10;;;2.53;;
1563;SDS011;775;51.958;7.976;2023-03-31T16:09:20;13.30;;;2.57;;
1563;SDS011;775;51.958;7.976;2023-03-31T16:11:50;13.00;;;1.90;;